Time;durP1;ratioP1;P1;durP2;ratioP2;P2;SDS_P1;SDS_P2;PMS_P1;PMS_P2;Temp;Humidity;BMP_temperature;BMP_pressure;BME280_temperature;BME280_humidity;BME280_pressure;Samples;Min_cycle;Max_cycle;Signal;HPM_P1;HPM_P2
2022/07/20 00:02:22;;;;;;;8.27;3.70;;;;;;;;;;5046320;28;20032;-74
2022/07/20 00:04:52;;;;;;;10.55;6.28;;;;;;;;;;5046113;28;20028;-73
2022/07/20 00:07:18;;;;;;;14.75;7.50;;;;;;;;;;5046291;28;20037;-72
2022/07/20 00:12:28;;;;;;;17.92;10.30;;;;;;;;;;5046521;28;20076;-73
2022/07/20 00:14:53;;;;;;;25.70;12.40;;;;;;;;;;5045456;28;20508;-73
2022/07/20 00:17:19;;;;;;;23.20;11.52;;;;;;;;;;5049425;28;20040;-76
2022/07/20 00:19:44;;;;;;;20.95;10.85;;;;;;;;;;5049248;28;20025;-73
2022/07/20 00:22:10;;;;;;;20.38;11.02;;;;;;;;;;5049321;28;20116;-76
2022/07/20 00:24:36;;;;;;;21.33;10.95;;;;;;;;;;5049533;28;20025;-74
2022/07/20 00:27:02;;;;;;;17.40;9.93;;;;;;;;;;5049331;28;20033;-76
2022/07/20 00:29:27;;;;;;;18.30;10.23;;;;;;;;;;5049297;28;20089;-73
2022/07/20 00:31:52;;;;;;;18.30;10.13;;;;;;;;;;5049199;28;20025;-73
2022/07/20 00:34:18;;;;;;;18.50;10.15;;;;;;;;;;5049308;27;20468;-74
2022/07/20 00:36:47;;;;;;;19.85;10.18;;;;;;;;;;5049058;27;20496;-74
2022/07/20 00:39:12;;;;;;;17.85;9.48;;;;;;;;;;5049303;28;20059;-74
2022/07/20 00:41:38;;;;;;;19.65;9.90;;;;;;;;;;5049152;28;20060;-75
2022/07/20 00:44:09;;;;;;;18.45;9.77;;;;;;;;;;5049140;28;20407;-75
2022/07/20 00:46:37;;;;;;;16.90;9.52;;;;;;;;;;5049031;28;20382;-74
2022/07/20 00:49:05;;;;;;;19.08;9.32;;;;;;;;;;5049040;28;20072;-74
2022/07/20 00:51:30;;;;;;;16.63;9.45;;;;;;;;;;5048684;28;20036;-75
2022/07/20 00:53:56;;;;;;;17.00;8.98;;;;;;;;;;5049061;28;20025;-75
2022/07/20 00:56:22;;;;;;;19.20;9.88;;;;;;;;;;5049105;27;20040;-75
2022/07/20 00:58:48;;;;;;;18.55;9.35;;;;;;;;;;5047704;28;20024;-74
2022/07/20 01:01:14;;;;;;;17.08;9.45;;;;;;;;;;5048505;28;20094;-75
2022/07/20 01:03:41;;;;;;;16.25;9.13;;;;;;;;;;5048788;28;20516;-74
2022/07/20 01:06:07;;;;;;;19.60;9.05;;;;;;;;;;5047233;28;20051;-75
2022/07/20 01:08:32;;;;;;;17.88;9.13;;;;;;;;;;5048660;28;20449;-73
2022/07/20 01:10:59;;;;;;;16.70;9.50;;;;;;;;;;5048772;28;20029;-74
2022/07/20 01:13:24;;;;;;;17.95;9.20;;;;;;;;;;5048832;28;20476;-74
2022/07/20 01:15:51;;;;;;;18.35;9.23;;;;;;;;;;5048595;28;20146;-74
2022/07/20 01:18:17;;;;;;;17.98;8.93;;;;;;;;;;5048698;28;20500;-74
2022/07/20 01:20:46;;;;;;;17.48;8.48;;;;;;;;;;5048661;28;20040;-74
2022/07/20 01:23:15;;;;;;;17.85;8.13;;;;;;;;;;5048477;28;20025;-75
2022/07/20 01:25:41;;;;;;;20.40;8.73;;;;;;;;;;5048388;28;20021;-73
2022/07/20 01:28:11;;;;;;;16.83;8.00;;;;;;;;;;5048290;28;20493;-73
2022/07/20 01:30:38;;;;;;;17.50;8.75;;;;;;;;;;5046952;28;20395;-74
2022/07/20 01:33:04;;;;;;;21.55;9.10;;;;;;;;;;5048412;28;20037;-73
2022/07/20 01:35:29;;;;;;;18.10;10.15;;;;;;;;;;5048449;28;20051;-74
2022/07/20 01:37:55;;;;;;;19.38;10.40;;;;;;;;;;5048197;28;20104;-75
2022/07/20 01:40:20;;;;;;;19.02;10.77;;;;;;;;;;5047993;28;20400;-76
2022/07/20 01:42:46;;;;;;;22.33;13.05;;;;;;;;;;5048031;28;20040;-77
2022/07/20 01:45:12;;;;;;;26.85;14.52;;;;;;;;;;5048365;28;20052;-77
2022/07/20 01:47:37;;;;;;;25.17;14.38;;;;;;;;;;5046842;28;20089;-78
2022/07/20 01:50:03;;;;;;;26.05;13.40;;;;;;;;;;5048123;28;20029;-78
2022/07/20 01:52:28;;;;;;;21.58;13.05;;;;;;;;;;5048248;28;20524;-78
2022/07/20 01:54:54;;;;;;;23.70;13.25;;;;;;;;;;5048397;28;20369;-72
2022/07/20 01:57:19;;;;;;;22.98;12.15;;;;;;;;;;5047863;28;20417;-74
2022/07/20 01:59:45;;;;;;;18.63;11.40;;;;;;;;;;5047751;28;20036;-75
2022/07/20 02:02:10;;;;;;;21.98;11.25;;;;;;;;;;5047380;28;20139;-73
2022/07/20 02:04:35;;;;;;;19.52;10.68;;;;;;;;;;5047792;28;20052;-74
2022/07/20 02:07:01;;;;;;;21.33;10.90;;;;;;;;;;5047688;28;20032;-74
2022/07/20 02:09:27;;;;;;;19.40;11.07;;;;;;;;;;5047873;28;20078;-72
2022/07/20 02:11:52;;;;;;;18.55;10.50;;;;;;;;;;5047685;28;20021;-73
2022/07/20 02:14:18;;;;;;;19.42;10.77;;;;;;;;;;5047710;28;20036;-73
2022/07/20 02:16:43;;;;;;;22.90;11.30;;;;;;;;;;5047581;28;20029;-73
2022/07/20 02:19:09;;;;;;;20.35;10.60;;;;;;;;;;5047671;28;20062;-72
2022/07/20 02:21:34;;;;;;;21.67;11.68;;;;;;;;;;5047151;28;20036;-72
2022/07/20 02:24:00;;;;;;;21.17;11.43;;;;;;;;;;5047707;28;20036;-76
2022/07/20 02:26:25;;;;;;;18.33;11.50;;;;;;;;;;5046329;28;20396;-73
2022/07/20 02:28:51;;;;;;;22.45;12.25;;;;;;;;;;5047680;28;20144;-73
2022/07/20 02:31:18;;;;;;;19.08;11.57;;;;;;;;;;5047345;28;20033;-71
2022/07/20 02:33:46;;;;;;;17.98;11.40;;;;;;;;;;5047286;28;20029;-73
2022/07/20 02:36:12;;;;;;;22.15;11.32;;;;;;;;;;5047416;28;20036;-74
2022/07/20 02:38:38;;;;;;;20.52;10.75;;;;;;;;;;5046608;28;20033;-73
2022/07/20 02:41:04;;;;;;;17.88;10.23;;;;;;;;;;5047030;28;20108;-75
2022/07/20 02:43:30;;;;;;;20.80;10.80;;;;;;;;;;5047271;28;20113;-74
2022/07/20 02:45:55;;;;;;;19.50;9.93;;;;;;;;;;5047295;28;20025;-73
2022/07/20 02:48:21;;;;;;;17.45;9.27;;;;;;;;;;5047130;28;20060;-76
2022/07/20 02:50:47;;;;;;;16.80;8.13;;;;;;;;;;5046950;28;20104;-72
2022/07/20 02:53:13;;;;;;;15.95;7.07;;;;;;;;;;5046998;28;20082;-72
2022/07/20 02:55:40;;;;;;;15.40;6.50;;;;;;;;;;5046959;28;20022;-73
2022/07/20 02:58:06;;;;;;;11.57;5.40;;;;;;;;;;5047476;28;20028;-72
2022/07/20 03:00:32;;;;;;;11.45;4.53;;;;;;;;;;5046844;28;20049;-74
2022/07/20 03:02:57;;;;;;;11.38;4.13;;;;;;;;;;5046984;28;20060;-73
2022/07/20 03:05:23;;;;;;;11.02;3.63;;;;;;;;;;5047358;28;20029;-74
2022/07/20 03:07:48;;;;;;;9.50;3.60;;;;;;;;;;5046669;28;20013;-75
2022/07/20 03:10:14;;;;;;;7.43;2.95;;;;;;;;;;5046827;28;20103;-73
2022/07/20 03:12:39;;;;;;;9.35;3.13;;;;;;;;;;5046864;28;20017;-72
2022/07/20 03:15:06;;;;;;;9.00;3.08;;;;;;;;;;5047126;28;20387;-72
2022/07/20 03:17:31;;;;;;;10.13;2.80;;;;;;;;;;5046844;28;20499;-73
2022/07/20 03:19:57;;;;;;;9.25;3.22;;;;;;;;;;5047166;28;20026;-72
2022/07/20 03:22:22;;;;;;;8.93;2.85;;;;;;;;;;5046510;28;20442;-72
2022/07/20 03:24:48;;;;;;;7.05;2.70;;;;;;;;;;5047090;28;20081;-72
2022/07/20 03:27:13;;;;;;;7.55;2.70;;;;;;;;;;5046469;28;20026;-73
2022/07/20 03:29:39;;;;;;;8.52;2.78;;;;;;;;;;5046806;28;20025;-73
2022/07/20 03:32:04;;;;;;;7.70;2.75;;;;;;;;;;5046630;28;20325;-73
2022/07/20 03:34:30;;;;;;;7.68;2.45;;;;;;;;;;5046665;28;20425;-72
2022/07/20 03:36:55;;;;;;;9.30;2.80;;;;;;;;;;5046607;28;20021;-72
2022/07/20 03:39:21;;;;;;;11.15;2.97;;;;;;;;;;5046525;28;20053;-72
2022/07/20 03:41:46;;;;;;;6.68;2.47;;;;;;;;;;5046140;28;20382;-73
2022/07/20 03:44:12;;;;;;;6.57;2.47;;;;;;;;;;5046612;28;20029;-73
2022/07/20 03:46:37;;;;;;;9.88;2.60;;;;;;;;;;5046434;28;20195;-72
2022/07/20 03:49:03;;;;;;;7.47;2.63;;;;;;;;;;5046482;28;20032;-75
2022/07/20 03:51:28;;;;;;;8.48;2.50;;;;;;;;;;5049146;28;20036;-78
2022/07/20 03:53:54;;;;;;;9.00;2.63;;;;;;;;;;5050284;28;20090;-78
2022/07/20 03:56:19;;;;;;;7.50;2.60;;;;;;;;;;5050016;28;20036;-77
2022/07/20 03:58:45;;;;;;;7.65;2.47;;;;;;;;;;5049771;28;20017;-76
2022/07/20 04:01:10;;;;;;;9.05;2.60;;;;;;;;;;5049400;28;20083;-77
2022/07/20 04:03:36;;;;;;;7.57;2.53;;;;;;;;;;5049909;28;20392;-76
2022/07/20 04:06:02;;;;;;;8.68;2.30;;;;;;;;;;5049558;28;20025;-78
2022/07/20 04:08:28;;;;;;;8.95;2.38;;;;;;;;;;5049729;28;20025;-78
2022/07/20 04:10:53;;;;;;;9.60;2.50;;;;;;;;;;5049660;28;20036;-76
2022/07/20 04:13:19;;;;;;;10.75;2.80;;;;;;;;;;5049696;28;20387;-77
2022/07/20 04:15:44;;;;;;;8.90;2.40;;;;;;;;;;5049487;28;20166;-77
2022/07/20 04:18:10;;;;;;;9.50;2.50;;;;;;;;;;5049471;28;20032;-78
2022/07/20 04:20:35;;;;;;;8.55;2.42;;;;;;;;;;5049370;28;20037;-76
2022/07/20 04:23:01;;;;;;;7.78;2.53;;;;;;;;;;5049363;28;20029;-77
2022/07/20 04:25:26;;;;;;;10.50;2.53;;;;;;;;;;5049251;28;20216;-79
2022/07/20 04:27:52;;;;;;;6.15;2.50;;;;;;;;;;5049486;28;20028;-78
2022/07/20 04:30:18;;;;;;;13.40;2.50;;;;;;;;;;5049625;28;20546;-76
2022/07/20 04:32:43;;;;;;;9.10;2.65;;;;;;;;;;5049151;28;20033;-77
2022/07/20 04:35:10;;;;;;;8.88;2.53;;;;;;;;;;5049194;28;20070;-74
2022/07/20 04:37:36;;;;;;;6.20;2.35;;;;;;;;;;5049052;28;20025;-74
2022/07/20 04:40:03;;;;;;;7.32;2.28;;;;;;;;;;5049165;28;20109;-77
2022/07/20 04:42:29;;;;;;;7.70;2.30;;;;;;;;;;5048889;28;20065;-76
2022/07/20 04:44:54;;;;;;;11.55;2.58;;;;;;;;;;5049318;28;20045;-74
2022/07/20 04:47:20;;;;;;;11.40;2.47;;;;;;;;;;5049166;28;20384;-74
2022/07/20 04:49:45;;;;;;;6.35;2.20;;;;;;;;;;5049199;28;20540;-73
2022/07/20 04:52:10;;;;;;;6.72;2.28;;;;;;;;;;5048517;28;20025;-72
2022/07/20 04:54:36;;;;;;;8.60;2.60;;;;;;;;;;5048982;28;20031;-72
2022/07/20 04:57:01;;;;;;;5.70;2.60;;;;;;;;;;5048709;28;20404;-73
2022/07/20 04:59:28;;;;;;;9.75;2.85;;;;;;;;;;5048895;28;20049;-75
2022/07/20 05:01:53;;;;;;;9.95;2.90;;;;;;;;;;5048194;28;20059;-73
2022/07/20 05:04:19;;;;;;;8.68;2.30;;;;;;;;;;5047590;28;20104;-73
2022/07/20 05:06:44;;;;;;;7.65;2.42;;;;;;;;;;5048650;28;20318;-73
2022/07/20 05:09:10;;;;;;;8.32;2.42;;;;;;;;;;5048674;28;20055;-76
2022/07/20 05:11:37;;;;;;;6.80;2.53;;;;;;;;;;5048509;28;20021;-73
2022/07/20 05:14:03;;;;;;;8.98;2.38;;;;;;;;;;5048546;28;20033;-72
2022/07/20 05:16:28;;;;;;;7.35;2.10;;;;;;;;;;5048561;28;20031;-74
2022/07/20 05:18:54;;;;;;;6.25;2.63;;;;;;;;;;5048751;28;20036;-72
2022/07/20 05:21:19;;;;;;;7.65;2.35;;;;;;;;;;5048276;28;20018;-73
2022/07/20 05:23:44;;;;;;;6.95;2.70;;;;;;;;;;5048464;28;20037;-74
2022/07/20 05:26:10;;;;;;;6.93;2.88;;;;;;;;;;5048685;28;20021;-74
2022/07/20 05:28:35;;;;;;;11.55;3.53;;;;;;;;;;5048644;28;20060;-74
2022/07/20 05:31:02;;;;;;;7.32;3.47;;;;;;;;;;5048513;28;20461;-75
2022/07/20 05:33:27;;;;;;;9.82;3.55;;;;;;;;;;5048187;28;20029;-75
2022/07/20 05:35:53;;;;;;;8.40;3.35;;;;;;;;;;5048190;28;20036;-75
2022/07/20 05:38:19;;;;;;;9.93;3.28;;;;;;;;;;5048509;28;20045;-75
2022/07/20 05:40:46;;;;;;;8.48;3.47;;;;;;;;;;5048314;28;20033;-74
2022/07/20 05:43:11;;;;;;;9.48;3.45;;;;;;;;;;5048044;28;20495;-73
2022/07/20 05:45:37;;;;;;;9.65;3.80;;;;;;;;;;5048158;28;20108;-75
2022/07/20 05:48:03;;;;;;;8.93;3.60;;;;;;;;;;5048371;28;20392;-74
2022/07/20 05:50:28;;;;;;;8.68;3.90;;;;;;;;;;5048182;28;20108;-76
2022/07/20 05:52:53;;;;;;;9.82;3.97;;;;;;;;;;5047808;28;20056;-75
2022/07/20 05:55:19;;;;;;;8.10;3.53;;;;;;;;;;5048059;28;20029;-75
2022/07/20 05:57:45;;;;;;;9.23;3.55;;;;;;;;;;5048050;28;20112;-74
2022/07/20 06:00:10;;;;;;;9.25;3.80;;;;;;;;;;5047988;28;20388;-74
2022/07/20 06:02:36;;;;;;;12.23;3.80;;;;;;;;;;5047528;28;20153;-75
2022/07/20 06:05:01;;;;;;;9.50;3.88;;;;;;;;;;5047670;28;20052;-74
2022/07/20 06:07:27;;;;;;;9.20;3.63;;;;;;;;;;5047184;28;20460;-75
2022/07/20 06:09:52;;;;;;;8.57;3.42;;;;;;;;;;5047890;28;20033;-75
2022/07/20 06:12:18;;;;;;;7.13;3.63;;;;;;;;;;5046575;28;20016;-77
2022/07/20 06:14:43;;;;;;;9.75;3.90;;;;;;;;;;5047781;28;20036;-78
2022/07/20 06:17:11;;;;;;;9.40;3.53;;;;;;;;;;5047750;28;20476;-77
2022/07/20 06:19:37;;;;;;;9.90;3.45;;;;;;;;;;5048010;28;20017;-77
2022/07/20 06:22:02;;;;;;;11.23;3.40;;;;;;;;;;5046983;28;20025;-75
2022/07/20 06:24:27;;;;;;;10.80;3.33;;;;;;;;;;5047548;28;20116;-76
2022/07/20 06:26:54;;;;;;;11.65;3.65;;;;;;;;;;5046051;28;20036;-78
2022/07/20 06:29:20;;;;;;;6.82;3.05;;;;;;;;;;5047640;28;20048;-79
2022/07/20 06:31:45;;;;;;;6.93;3.03;;;;;;;;;;5047493;28;20060;-74
2022/07/20 06:34:11;;;;;;;11.10;3.25;;;;;;;;;;5047566;28;20025;-76
2022/07/20 06:36:37;;;;;;;7.97;2.95;;;;;;;;;;5047361;28;20383;-74
2022/07/20 06:39:03;;;;;;;7.68;2.75;;;;;;;;;;5047411;28;20045;-73
2022/07/20 06:41:28;;;;;;;7.65;2.90;;;;;;;;;;5047314;28;20445;-74
2022/07/20 06:43:53;;;;;;;7.55;2.85;;;;;;;;;;5047314;28;20074;-77
2022/07/20 06:46:19;;;;;;;7.72;2.83;;;;;;;;;;5047146;28;20070;-74
2022/07/20 06:48:44;;;;;;;8.63;2.92;;;;;;;;;;5047304;28;20369;-72
2022/07/20 06:51:10;;;;;;;7.65;2.78;;;;;;;;;;5047418;28;20483;-73
2022/07/20 06:53:35;;;;;;;8.32;2.60;;;;;;;;;;5046948;28;20376;-73
2022/07/20 06:56:01;;;;;;;6.97;2.60;;;;;;;;;;5047096;28;20028;-73
2022/07/20 06:58:26;;;;;;;8.68;2.58;;;;;;;;;;5045633;28;20033;-74
2022/07/20 07:00:52;;;;;;;6.82;2.40;;;;;;;;;;5046921;28;20049;-74
2022/07/20 07:03:17;;;;;;;5.65;2.17;;;;;;;;;;5046809;28;20025;-73
2022/07/20 07:05:43;;;;;;;7.03;2.47;;;;;;;;;;5046985;28;20601;-75
2022/07/20 07:08:08;;;;;;;7.50;2.67;;;;;;;;;;5047001;28;20170;-74
2022/07/20 07:10:33;;;;;;;5.72;2.33;;;;;;;;;;5047038;28;20044;-75
2022/07/20 07:12:59;;;;;;;10.13;2.40;;;;;;;;;;5046608;28;20033;-74
2022/07/20 07:15:24;;;;;;;5.18;2.42;;;;;;;;;;5046765;28;20092;-74
2022/07/20 07:17:50;;;;;;;7.15;2.40;;;;;;;;;;5046761;28;20077;-74
2022/07/20 07:20:15;;;;;;;4.55;2.10;;;;;;;;;;5046729;28;20025;-73
2022/07/20 07:22:41;;;;;;;6.35;2.25;;;;;;;;;;5046610;28;20477;-74
2022/07/20 07:25:07;;;;;;;7.28;2.33;;;;;;;;;;5049426;28;20029;-74
2022/07/20 07:27:32;;;;;;;4.00;1.92;;;;;;;;;;5050284;28;20120;-75
2022/07/20 07:29:58;;;;;;;7.65;2.63;;;;;;;;;;5050201;28;20104;-75
2022/07/20 07:32:23;;;;;;;4.53;2.03;;;;;;;;;;5050048;28;20033;-73
2022/07/20 07:34:48;;;;;;;7.38;2.20;;;;;;;;;;5050162;28;20071;-75
2022/07/20 07:37:14;;;;;;;6.95;2.40;;;;;;;;;;5050093;28;20021;-74
2022/07/20 07:39:39;;;;;;;8.75;2.05;;;;;;;;;;5050189;28;20025;-73
2022/07/20 07:42:05;;;;;;;10.05;2.30;;;;;;;;;;5050353;28;20078;-73
2022/07/20 07:44:30;;;;;;;6.15;1.85;;;;;;;;;;5050501;28;20028;-75
2022/07/20 07:46:56;;;;;;;5.88;1.95;;;;;;;;;;5050058;28;20082;-74
2022/07/20 07:49:21;;;;;;;6.68;2.00;;;;;;;;;;5049848;28;20044;-73
2022/07/20 07:51:46;;;;;;;7.93;2.28;;;;;;;;;;5049649;28;20025;-75
2022/07/20 07:54:12;;;;;;;5.22;2.20;;;;;;;;;;5050028;28;20104;-74
2022/07/20 07:56:37;;;;;;;6.53;2.08;;;;;;;;;;5050171;28;20033;-74
2022/07/20 07:59:03;;;;;;;10.80;2.60;;;;;;;;;;5049959;28;20447;-74
2022/07/20 08:01:29;;;;;;;11.75;2.60;;;;;;;;;;5049621;28;20085;-74
2022/07/20 08:03:55;;;;;;;10.77;2.33;;;;;;;;;;5049495;28;20437;-74
2022/07/20 08:06:20;;;;;;;6.97;2.20;;;;;;;;;;5049788;28;20462;-74
2022/07/20 08:08:45;;;;;;;8.85;1.92;;;;;;;;;;5049733;28;20026;-74
2022/07/20 08:11:11;;;;;;;4.22;1.65;;;;;;;;;;5048380;28;20463;-74
2022/07/20 08:13:36;;;;;;;4.22;1.80;;;;;;;;;;5049559;28;20025;-76
2022/07/20 08:16:02;;;;;;;7.05;2.08;;;;;;;;;;5049559;28;20025;-74
2022/07/20 08:18:27;;;;;;;6.70;1.75;;;;;;;;;;5049594;28;20025;-74
2022/07/20 08:20:53;;;;;;;8.43;2.28;;;;;;;;;;5049430;28;20035;-74
2022/07/20 08:23:18;;;;;;;5.65;1.80;;;;;;;;;;5049230;28;20035;-76
2022/07/20 08:25:44;;;;;;;4.80;1.88;;;;;;;;;;5049531;28;20029;-75
2022/07/20 08:28:16;;;;;;;6.78;2.05;;;;;;;;;;5049176;28;20021;-75
2022/07/20 08:30:45;;;;;;;6.57;2.03;;;;;;;;;;5049488;28;20116;-75
2022/07/20 08:33:11;;;;;;;11.35;2.03;;;;;;;;;;5047817;28;20040;-75
2022/07/20 08:35:37;;;;;;;5.00;2.00;;;;;;;;;;5048512;28;20029;-77
2022/07/20 08:38:03;;;;;;;6.57;2.10;;;;;;;;;;5049088;28;20037;-76
2022/07/20 08:40:28;;;;;;;6.30;1.83;;;;;;;;;;5049004;28;20452;-76
2022/07/20 08:42:54;;;;;;;9.27;2.30;;;;;;;;;;5048850;28;20482;-75
2022/07/20 08:45:20;;;;;;;5.10;2.00;;;;;;;;;;5047783;28;20477;-76
2022/07/20 08:47:48;;;;;;;5.22;1.90;;;;;;;;;;5049016;28;20487;-74
2022/07/20 08:50:13;;;;;;;8.20;2.30;;;;;;;;;;5049519;28;20037;-75
2022/07/20 08:52:39;;;;;;;6.95;2.17;;;;;;;;;;5048768;28;20041;-76
2022/07/20 08:55:05;;;;;;;4.15;2.00;;;;;;;;;;5049062;28;20032;-75
2022/07/20 08:57:31;;;;;;;5.55;2.05;;;;;;;;;;5048912;28;20021;-76
2022/07/20 08:59:57;;;;;;;5.45;2.20;;;;;;;;;;5048574;28;20392;-77
2022/07/20 09:02:23;;;;;;;5.53;1.98;;;;;;;;;;5048490;28;20286;-77
2022/07/20 09:04:56;;;;;;;8.35;2.25;;;;;;;;;;5048761;28;20109;-78
2022/07/20 09:07:42;;;;;;;7.97;2.50;;;;;;;;;;5048635;28;20504;-77
2022/07/20 09:10:14;;;;;;;5.10;2.05;;;;;;;;;;5049115;28;20505;-77
2022/07/20 09:13:07;;;;;;;8.70;2.33;;;;;;;;;;5047297;28;20021;-77
2022/07/20 09:15:55;;;;;;;7.25;2.75;;;;;;;;;;5046895;28;20071;-76
2022/07/20 09:18:33;;;;;;;6.80;2.25;;;;;;;;;;5048824;28;20052;-77
2022/07/20 09:21:09;;;;;;;7.35;2.63;;;;;;;;;;5048403;28;20220;-77
2022/07/20 09:23:41;;;;;;;6.32;2.50;;;;;;;;;;5047161;28;20033;-77
2022/07/20 09:26:13;;;;;;;7.40;2.47;;;;;;;;;;5048592;28;20021;-75
2022/07/20 09:28:49;;;;;;;8.00;2.50;;;;;;;;;;5048562;28;20066;-76
2022/07/20 09:31:25;;;;;;;6.70;2.40;;;;;;;;;;5048500;28;20021;-76
2022/07/20 09:34:17;;;;;;;5.22;2.53;;;;;;;;;;5048347;28;20374;-77
2022/07/20 09:36:45;;;;;;;7.20;2.55;;;;;;;;;;5048343;28;20398;-76
2022/07/20 09:39:14;;;;;;;9.02;2.70;;;;;;;;;;5048197;28;20052;-74
2022/07/20 09:41:44;;;;;;;10.68;2.85;;;;;;;;;;5048203;28;20024;-75
2022/07/20 09:44:21;;;;;;;8.05;2.83;;;;;;;;;;5048277;28;20025;-74
2022/07/20 09:46:46;;;;;;;8.02;2.50;;;;;;;;;;5048273;28;20486;-73
2022/07/20 09:49:12;;;;;;;7.10;2.50;;;;;;;;;;5048219;28;20029;-74
2022/07/20 09:51:41;;;;;;;7.35;2.70;;;;;;;;;;5047884;28;20040;-75
2022/07/20 09:54:11;;;;;;;5.10;2.50;;;;;;;;;;5047768;28;20037;-75
2022/07/20 09:56:41;;;;;;;7.25;2.85;;;;;;;;;;5048072;28;20033;-73
2022/07/20 09:59:10;;;;;;;11.30;3.00;;;;;;;;;;5048219;28;20033;-74
2022/07/20 10:01:38;;;;;;;8.90;3.17;;;;;;;;;;5047696;28;20052;-74
2022/07/20 10:04:08;;;;;;;8.15;3.20;;;;;;;;;;5047620;27;20040;-76
2022/07/20 10:06:35;;;;;;;7.20;3.28;;;;;;;;;;5047358;28;20040;-76
2022/07/20 10:09:03;;;;;;;5.78;2.97;;;;;;;;;;5047250;28;20056;-74
2022/07/20 10:11:28;;;;;;;10.55;3.30;;;;;;;;;;5046169;28;20033;-77
2022/07/20 10:13:56;;;;;;;8.65;2.90;;;;;;;;;;5047290;28;20089;-73
2022/07/20 10:16:30;;;;;;;8.88;3.10;;;;;;;;;;5045923;28;20064;-74
2022/07/20 10:18:57;;;;;;;8.85;2.92;;;;;;;;;;5047601;28;20021;-74
2022/07/20 10:21:40;;;;;;;12.10;2.92;;;;;;;;;;5047622;28;20044;-73
2022/07/20 10:24:18;;;;;;;4.85;2.75;;;;;;;;;;5047466;28;20033;-73
2022/07/20 10:26:50;;;;;;;7.15;2.70;;;;;;;;;;5046077;28;20032;-73
2022/07/20 10:29:26;;;;;;;5.93;2.88;;;;;;;;;;5047853;28;20036;-73
2022/07/20 10:31:54;;;;;;;9.82;3.30;;;;;;;;;;5047360;28;20490;-73
2022/07/20 10:34:40;;;;;;;7.15;3.28;;;;;;;;;;5047381;28;20029;-73
2022/07/20 10:37:23;;;;;;;9.73;3.30;;;;;;;;;;5047529;28;20025;-73
2022/07/20 10:40:08;;;;;;;10.60;3.38;;;;;;;;;;5047277;28;20101;-74
2022/07/20 10:43:01;;;;;;;7.07;3.13;;;;;;;;;;5047332;28;20546;-73
2022/07/20 10:45:29;;;;;;;6.25;2.97;;;;;;;;;;5046907;28;20484;-73
2022/07/20 10:48:11;;;;;;;6.43;2.78;;;;;;;;;;5046015;28;20029;-73
2022/07/20 10:50:41;;;;;;;6.97;3.10;;;;;;;;;;5047160;28;20021;-74
2022/07/20 10:53:15;;;;;;;7.00;3.10;;;;;;;;;;5047336;28;20551;-73
2022/07/20 10:55:53;;;;;;;7.60;3.60;;;;;;;;;;5045787;28;20064;-73
2022/07/20 10:58:24;;;;;;;6.63;3.00;;;;;;;;;;5046753;28;20105;-73
2022/07/20 11:01:10;;;;;;;8.32;3.70;;;;;;;;;;5046913;28;20068;-75
2022/07/20 11:03:48;;;;;;;11.93;3.25;;;;;;;;;;5046831;28;20029;-74
2022/07/20 11:06:23;;;;;;;9.75;3.50;;;;;;;;;;5046857;28;20556;-74
2022/07/20 11:08:56;;;;;;;8.98;3.55;;;;;;;;;;5046926;28;20384;-74
2022/07/20 11:11:30;;;;;;;7.18;3.47;;;;;;;;;;5047103;28;20035;-76
2022/07/20 11:13:56;;;;;;;7.45;3.10;;;;;;;;;;5046824;28;20150;-77
2022/07/20 11:16:23;;;;;;;7.32;3.28;;;;;;;;;;5046790;28;20112;-77
2022/07/20 11:18:50;;;;;;;9.13;3.10;;;;;;;;;;5046841;28;20040;-75
2022/07/20 11:21:16;;;;;;;5.82;3.08;;;;;;;;;;5046484;28;20422;-75
2022/07/20 11:23:45;;;;;;;8.15;3.40;;;;;;;;;;5046523;28;20025;-75
2022/07/20 11:26:13;;;;;;;6.85;3.20;;;;;;;;;;5046920;28;20025;-76
2022/07/20 11:28:52;;;;;;;7.45;3.10;;;;;;;;;;5046864;28;20500;-74
2022/07/20 11:31:20;;;;;;;8.73;3.35;;;;;;;;;;5045474;28;20037;-73
2022/07/20 11:33:48;;;;;;;5.82;3.33;;;;;;;;;;5046677;28;20032;-73
2022/07/20 11:36:15;;;;;;;8.23;3.72;;;;;;;;;;5046280;28;20061;-73
2022/07/20 11:38:45;;;;;;;9.38;3.58;;;;;;;;;;5047202;28;20025;-73
2022/07/20 11:41:23;;;;;;;8.18;3.42;;;;;;;;;;5046667;28;20029;-76
2022/07/20 11:43:50;;;;;;;7.03;3.33;;;;;;;;;;5046695;28;20089;-75
2022/07/20 11:46:24;;;;;;;8.18;3.15;;;;;;;;;;5046902;28;20029;-75
2022/07/20 11:49:00;;;;;;;10.07;3.80;;;;;;;;;;5046595;28;20056;-75
2022/07/20 11:51:31;;;;;;;10.70;3.70;;;;;;;;;;5046352;28;20061;-75
2022/07/20 11:53:56;;;;;;;;;;;;;;;;;;5047001;28;20029;-75
2022/07/20 11:56:24;;;;;;;6.90;3.47;;;;;;;;;;5046508;28;19920;-74
2022/07/20 11:58:52;;;;;;;9.18;2.92;;;;;;;;;;5046528;28;20021;-76
2022/07/20 12:01:22;;;;;;;6.85;3.30;;;;;;;;;;5046151;28;20045;-75
2022/07/20 12:03:51;;;;;;;6.00;3.42;;;;;;;;;;5046181;28;20032;-75
2022/07/20 12:06:17;;;;;;;7.95;3.20;;;;;;;;;;5046505;28;20138;-76
2022/07/20 12:08:42;;;;;;;8.18;3.38;;;;;;;;;;5046134;28;20396;-74
2022/07/20 12:11:11;;;;;;;8.48;3.78;;;;;;;;;;5046313;28;20496;-76
2022/07/20 12:13:49;;;;;;;8.77;3.70;;;;;;;;;;5049691;28;20024;-74
2022/07/20 12:16:15;;;;;;;6.93;3.58;;;;;;;;;;5049596;28;20032;-75
2022/07/20 12:18:47;;;;;;;8.20;4.03;;;;;;;;;;5049756;28;20025;-74
2022/07/20 12:21:18;;;;;;;10.70;3.72;;;;;;;;;;5049536;28;20407;-72
2022/07/20 12:23:45;;;;;;;9.68;4.43;;;;;;;;;;5049576;28;20029;-74
2022/07/20 12:26:21;;;;;;;10.27;4.40;;;;;;;;;;5049175;28;20021;-73
2022/07/20 12:28:46;;;;;;;8.75;4.38;;;;;;;;;;5049247;28;20029;-74
2022/07/20 12:31:17;;;;;;;7.70;4.35;;;;;;;;;;5047948;28;20032;-73
2022/07/20 12:34:06;;;;;;;9.13;4.35;;;;;;;;;;5049229;28;20115;-74
2022/07/20 12:36:43;;;;;;;9.75;4.45;;;;;;;;;;5049221;28;20032;-74
2022/07/20 12:39:14;;;;;;;7.20;4.03;;;;;;;;;;5049413;28;20058;-74
2022/07/20 12:41:41;;;;;;;8.88;4.05;;;;;;;;;;5049135;28;20075;-74
2022/07/20 12:44:26;;;;;;;12.02;4.47;;;;;;;;;;5049391;28;20026;-74
2022/07/20 12:46:54;;;;;;;12.80;4.82;;;;;;;;;;5049013;28;20025;-74
2022/07/20 12:49:25;;;;;;;12.02;4.70;;;;;;;;;;5049201;28;20029;-75
2022/07/20 12:51:51;;;;;;;11.52;4.43;;;;;;;;;;5048720;28;20029;-73
2022/07/20 12:54:18;;;;;;;13.35;4.60;;;;;;;;;;5048901;28;20429;-74
2022/07/20 12:56:44;;;;;;;11.20;4.85;;;;;;;;;;5049081;28;20100;-74
2022/07/20 12:59:10;;;;;;;9.38;4.38;;;;;;;;;;5049375;28;20131;-73
2022/07/20 13:01:36;;;;;;;9.85;4.65;;;;;;;;;;5047334;28;20033;-74
2022/07/20 13:04:02;;;;;;;8.40;4.32;;;;;;;;;;5047405;28;20481;-73
2022/07/20 13:06:27;;;;;;;10.38;4.03;;;;;;;;;;5048583;28;20017;-73
2022/07/20 13:08:53;;;;;;;10.23;4.35;;;;;;;;;;5048765;28;20605;-73
2022/07/20 13:11:18;;;;;;;7.53;4.35;;;;;;;;;;5048635;28;20033;-73
2022/07/20 13:13:44;;;;;;;10.65;4.68;;;;;;;;;;5048798;28;20025;-73
2022/07/20 13:16:10;;;;;;;9.75;4.40;;;;;;;;;;5048460;28;20025;-73
2022/07/20 13:18:35;;;;;;;9.90;4.63;;;;;;;;;;5048566;28;20108;-74
2022/07/20 13:21:01;;;;;;;13.60;5.10;;;;;;;;;;5048563;28;20061;-73
2022/07/20 13:23:26;;;;;;;14.02;4.57;;;;;;;;;;5048102;28;20479;-73
2022/07/20 13:25:52;;;;;;;10.57;4.40;;;;;;;;;;5048359;28;20017;-73
2022/07/20 13:28:17;;;;;;;8.88;4.38;;;;;;;;;;5048372;28;20049;-75
2022/07/20 13:30:43;;;;;;;8.98;4.65;;;;;;;;;;5048460;28;20082;-74
2022/07/20 13:33:09;;;;;;;8.82;4.60;;;;;;;;;;5048312;28;20036;-75
2022/07/20 13:35:37;;;;;;;9.73;4.65;;;;;;;;;;5047960;28;20119;-77
2022/07/20 13:38:03;;;;;;;11.10;4.53;;;;;;;;;;5048277;28;20021;-74
2022/07/20 13:40:28;;;;;;;8.38;4.90;;;;;;;;;;5048188;28;20403;-74
2022/07/20 13:42:55;;;;;;;7.60;4.55;;;;;;;;;;5048045;28;20307;-75
2022/07/20 13:45:20;;;;;;;9.38;4.90;;;;;;;;;;5047903;28;20125;-74
2022/07/20 13:47:46;;;;;;;11.30;4.65;;;;;;;;;;5047998;28;20099;-75
2022/07/20 13:50:12;;;;;;;9.65;4.57;;;;;;;;;;5048126;28;20021;-74
2022/07/20 13:52:39;;;;;;;11.35;4.60;;;;;;;;;;5047956;28;20105;-74
2022/07/20 13:55:05;;;;;;;11.15;4.88;;;;;;;;;;5047595;28;20037;-73
2022/07/20 13:57:30;;;;;;;10.80;4.90;;;;;;;;;;5048079;28;20033;-74
2022/07/20 13:59:56;;;;;;;11.75;5.25;;;;;;;;;;5047899;28;20391;-73
2022/07/20 14:02:21;;;;;;;11.45;5.28;;;;;;;;;;5047625;28;20098;-74
2022/07/20 14:04:47;;;;;;;9.98;5.18;;;;;;;;;;5047656;28;20021;-73
2022/07/20 14:07:12;;;;;;;10.93;4.93;;;;;;;;;;5048020;28;20388;-74
2022/07/20 14:09:38;;;;;;;8.57;4.70;;;;;;;;;;5047724;28;20025;-74
2022/07/20 14:12:04;;;;;;;10.52;5.00;;;;;;;;;;5047651;28;20025;-75
2022/07/20 14:14:29;;;;;;;9.10;5.07;;;;;;;;;;5047613;28;20021;-74
2022/07/20 14:16:55;;;;;;;11.35;5.15;;;;;;;;;;5047403;28;20033;-75
2022/07/20 14:19:20;;;;;;;8.77;5.13;;;;;;;;;;5047534;28;20029;-74
2022/07/20 14:21:46;;;;;;;11.82;5.03;;;;;;;;;;5047463;28;20029;-74
2022/07/20 14:24:11;;;;;;;9.57;5.22;;;;;;;;;;5047824;28;20074;-73
2022/07/20 14:26:37;;;;;;;10.30;4.90;;;;;;;;;;5047536;28;20393;-72
2022/07/20 14:29:04;;;;;;;9.35;4.93;;;;;;;;;;5047468;28;20025;-73
2022/07/20 14:31:31;;;;;;;9.65;5.20;;;;;;;;;;5047406;28;20058;-72
2022/07/20 14:33:57;;;;;;;11.75;5.00;;;;;;;;;;5046537;28;20540;-72
2022/07/20 14:36:23;;;;;;;8.43;5.50;;;;;;;;;;5047155;28;20041;-73
2022/07/20 14:38:50;;;;;;;9.38;5.50;;;;;;;;;;5047871;28;20029;-75
2022/07/20 14:41:17;;;;;;;8.93;5.07;;;;;;;;;;5047462;28;20396;-74
2022/07/20 14:43:42;;;;;;;11.60;5.10;;;;;;;;;;5047423;28;20036;-76